N787PR TJSJ-TFFF
Flight info
| Callsign | N787PR |
|---|---|
| Flight time | N/A |
| Altitude | 23000 |
| Route | JETSS1 COY A555 ILURI UA555 DUNTA DCT EMOLA EMOLA2X |
| Aircraft | PRM1/L-SDE2E3FGHRWXY/LB1 |
Departure
| Time | 2026-05-06 01:51 |
|---|---|
| Airport | Luis Munoz Marin International Airport (TJSJ) |
Arrival
| Time | N/A |
|---|---|
| Airport | Martinique Aimé Césaire International Airport (TFFF) |
| Time | Latitude | Longitude | Altitude | Speed | Heading |
|---|---|---|---|---|---|
| 2026-05-06 01:33 | 18.44138 | -65.99916 | 14 ft | 0 kts | 65° |
| 2026-05-06 01:46 | 18.44140 | -65.99912 | 14 ft | 1 kts | 61° |
| 2026-05-06 01:46 | 18.44159 | -65.99901 | 14 ft | 6 kts | 0° |
| 2026-05-06 01:46 | 18.44220 | -65.99914 | 14 ft | 12 kts | 335° |
| 2026-05-06 01:47 | 18.44274 | -65.99924 | 14 ft | 6 kts | 36° |
| 2026-05-06 01:47 | 18.44306 | -65.99911 | 14 ft | 9 kts | 351° |
| 2026-05-06 01:47 | 18.44375 | -65.99960 | 14 ft | 15 kts | 275° |
| 2026-05-06 01:47 | 18.44329 | -66.00076 | 14 ft | 19 kts | 246° |
| 2026-05-06 01:48 | 18.44270 | -66.00220 | 14 ft | 23 kts | 247° |
| 2026-05-06 01:48 | 18.44208 | -66.00375 | 14 ft | 21 kts | 247° |
| 2026-05-06 01:48 | 18.44146 | -66.00502 | 14 ft | 21 kts | 229° |
| 2026-05-06 01:48 | 18.44067 | -66.00642 | 14 ft | 24 kts | 246° |
| 2026-05-06 01:49 | 18.43996 | -66.00817 | 14 ft | 27 kts | 246° |
| 2026-05-06 01:49 | 18.43919 | -66.01005 | 14 ft | 29 kts | 247° |
| 2026-05-06 01:49 | 18.43855 | -66.01174 | 14 ft | 23 kts | 252° |
| 2026-05-06 01:49 | 18.43814 | -66.01289 | 14 ft | 14 kts | 255° |
| 2026-05-06 01:50 | 18.43867 | -66.01378 | 14 ft | 19 kts | 339° |
| 2026-05-06 01:50 | 18.43932 | -66.01348 | 14 ft | 0 kts | 66° |
| 2026-05-06 01:50 | 18.43932 | -66.01347 | 14 ft | 1 kts | 66° |
| 2026-05-06 01:50 | 18.43998 | -66.01185 | 14 ft | 58 kts | 67° |
| 2026-05-06 01:51 | 18.44246 | -66.00572 | 14 ft | 121 kts | 69° |
| 2026-05-06 01:51 | 18.44616 | -65.99630 | 278 ft | 155 kts | 67° |
| 2026-05-06 01:51 | 18.45054 | -65.98600 | 1137 ft | 153 kts | 65° |
| 2026-05-06 01:51 | 18.45514 | -65.97593 | 1942 ft | 153 kts | 67° |
| 2026-05-06 01:52 | 18.45932 | -65.96568 | 2712 ft | 156 kts | 68° |
| 2026-05-06 01:52 | 18.46414 | -65.95532 | 3530 ft | 151 kts | 66° |
| 2026-05-06 01:52 | 18.46886 | -65.94559 | 4310 ft | 153 kts | 66° |
| 2026-05-06 01:52 | 18.47360 | -65.93542 | 5011 ft | 156 kts | 66° |
| 2026-05-06 01:53 | 18.47832 | -65.92508 | 5708 ft | 157 kts | 67° |
| 2026-05-06 01:53 | 18.48325 | -65.91478 | 6383 ft | 160 kts | 66° |
| 2026-05-06 01:53 | 18.48829 | -65.90419 | 7019 ft | 162 kts | 68° |
| 2026-05-06 01:53 | 18.49195 | -65.89289 | 7646 ft | 163 kts | 77° |
| 2026-05-06 01:54 | 18.49533 | -65.88144 | 8283 ft | 165 kts | 74° |
| 2026-05-06 01:54 | 18.49919 | -65.87001 | 8915 ft | 167 kts | 71° |
| 2026-05-06 01:54 | 18.50322 | -65.85839 | 9512 ft | 170 kts | 71° |
| 2026-05-06 01:54 | 18.50732 | -65.84657 | 10121 ft | 172 kts | 71° |
| 2026-05-06 01:55 | 18.51147 | -65.83466 | 10681 ft | 174 kts | 71° |
| 2026-05-06 01:55 | 18.51564 | -65.82262 | 11264 ft | 176 kts | 70° |
| 2026-05-06 01:55 | 18.51989 | -65.81036 | 11841 ft | 180 kts | 70° |
| 2026-05-06 01:55 | 18.52422 | -65.79791 | 12442 ft | 182 kts | 71° |
| 2026-05-06 01:56 | 18.52859 | -65.78530 | 13056 ft | 185 kts | 70° |
| 2026-05-06 01:56 | 18.53303 | -65.77250 | 13680 ft | 187 kts | 70° |
| 2026-05-06 01:56 | 18.53753 | -65.75950 | 14730 ft | 192 kts | 70° |
| 2026-05-06 01:56 | 18.54223 | -65.74596 | 14628 ft | 198 kts | 70° |
| 2026-05-06 01:57 | 18.54695 | -65.73231 | 15222 ft | 201 kts | 69° |
| 2026-05-06 01:57 | 18.55154 | -65.71836 | 15825 ft | 204 kts | 77° |
| 2026-05-06 01:57 | 18.54950 | -65.70367 | 16457 ft | 208 kts | 114° |
| 2026-05-06 01:57 | 18.54099 | -65.69138 | 17088 ft | 211 kts | 133° |
| 2026-05-06 01:58 | 18.53118 | -65.67960 | 17726 ft | 215 kts | 132° |
| 2026-05-06 01:58 | 18.52136 | -65.66757 | 18432 ft | 217 kts | 131° |
| 2026-05-06 01:58 | 18.51151 | -65.65536 | 19045 ft | 220 kts | 131° |
| 2026-05-06 01:58 | 18.50153 | -65.64299 | 19683 ft | 222 kts | 132° |
| 2026-05-06 01:59 | 18.49154 | -65.63062 | 20366 ft | 222 kts | 133° |
| 2026-05-06 01:59 | 18.48142 | -65.61811 | 21009 ft | 225 kts | 133° |